sensor_id;sensor_type;location;lat;lon;timestamp;temperature;humidity
13928;DHT22;7036;50.834;4.718;2023-06-10T00:00:16;25.70;54.40
13928;DHT22;7036;50.834;4.718;2023-06-10T00:02:43;25.70;54.40
13928;DHT22;7036;50.834;4.718;2023-06-10T00:05:13;25.70;54.40
13928;DHT22;7036;50.834;4.718;2023-06-10T00:07:40;25.70;54.40
13928;DHT22;7036;50.834;4.718;2023-06-10T00:10:08;25.70;54.50
13928;DHT22;7036;50.834;4.718;2023-06-10T00:12:35;25.60;54.40
13928;DHT22;7036;50.834;4.718;2023-06-10T00:15:06;25.70;54.50
13928;DHT22;7036;50.834;4.718;2023-06-10T00:17:37;25.70;54.50
13928;DHT22;7036;50.834;4.718;2023-06-10T00:20:03;25.70;54.40
13928;DHT22;7036;50.834;4.718;2023-06-10T00:22:31;25.60;54.50
13928;DHT22;7036;50.834;4.718;2023-06-10T00:24:58;25.60;54.30
13928;DHT22;7036;50.834;4.718;2023-06-10T00:27:25;25.60;54.40
13928;DHT22;7036;50.834;4.718;2023-06-10T00:29:52;25.60;54.40
13928;DHT22;7036;50.834;4.718;2023-06-10T00:32:19;25.60;54.40
13928;DHT22;7036;50.834;4.718;2023-06-10T00:34:47;25.60;54.40
13928;DHT22;7036;50.834;4.718;2023-06-10T00:37:14;25.60;54.40
13928;DHT22;7036;50.834;4.718;2023-06-10T00:39:42;25.60;54.40
13928;DHT22;7036;50.834;4.718;2023-06-10T00:42:08;25.60;54.40
13928;DHT22;7036;50.834;4.718;2023-06-10T00:44:35;25.60;54.30
13928;DHT22;7036;50.834;4.718;2023-06-10T00:47:03;25.60;54.40
13928;DHT22;7036;50.834;4.718;2023-06-10T00:49:30;25.60;54.40
13928;DHT22;7036;50.834;4.718;2023-06-10T00:51:57;25.60;54.40
13928;DHT22;7036;50.834;4.718;2023-06-10T00:54:27;25.60;54.40
13928;DHT22;7036;50.834;4.718;2023-06-10T00:56:54;25.60;54.40
13928;DHT22;7036;50.834;4.718;2023-06-10T00:59:23;25.60;54.40
13928;DHT22;7036;50.834;4.718;2023-06-10T01:01:50;25.50;54.40
13928;DHT22;7036;50.834;4.718;2023-06-10T01:04:17;25.60;54.40
13928;DHT22;7036;50.834;4.718;2023-06-10T01:09:23;25.60;54.40
13928;DHT22;7036;50.834;4.718;2023-06-10T01:11:47;25.60;54.40
13928;DHT22;7036;50.834;4.718;2023-06-10T01:14:13;25.60;54.40
13928;DHT22;7036;50.834;4.718;2023-06-10T01:16:40;25.60;54.40
13928;DHT22;7036;50.834;4.718;2023-06-10T01:19:07;25.60;54.40
13928;DHT22;7036;50.834;4.718;2023-06-10T01:21:37;25.60;54.40
13928;DHT22;7036;50.834;4.718;2023-06-10T01:24:01;25.50;54.40
13928;DHT22;7036;50.834;4.718;2023-06-10T01:26:29;25.50;54.40
13928;DHT22;7036;50.834;4.718;2023-06-10T01:28:58;25.50;54.40
13928;DHT22;7036;50.834;4.718;2023-06-10T01:31:45;25.50;54.40
13928;DHT22;7036;50.834;4.718;2023-06-10T01:34:12;25.50;54.50
13928;DHT22;7036;50.834;4.718;2023-06-10T01:36:37;25.50;54.40
13928;DHT22;7036;50.834;4.718;2023-06-10T01:39:07;25.50;55.10
13928;DHT22;7036;50.834;4.718;2023-06-10T01:41:34;25.50;54.40
13928;DHT22;7036;50.834;4.718;2023-06-10T01:44:03;25.50;54.40
13928;DHT22;7036;50.834;4.718;2023-06-10T01:46:30;25.50;54.40
13928;DHT22;7036;50.834;4.718;2023-06-10T01:48:57;25.50;54.40
13928;DHT22;7036;50.834;4.718;2023-06-10T01:51:25;25.50;54.40
13928;DHT22;7036;50.834;4.718;2023-06-10T01:53:52;25.50;54.40
13928;DHT22;7036;50.834;4.718;2023-06-10T01:56:21;25.50;54.40
13928;DHT22;7036;50.834;4.718;2023-06-10T01:58:48;25.50;54.40
13928;DHT22;7036;50.834;4.718;2023-06-10T02:01:18;25.50;54.40
13928;DHT22;7036;50.834;4.718;2023-06-10T02:03:46;25.50;54.40
13928;DHT22;7036;50.834;4.718;2023-06-10T02:06:12;25.50;54.40
13928;DHT22;7036;50.834;4.718;2023-06-10T02:08:39;25.50;54.30
13928;DHT22;7036;50.834;4.718;2023-06-10T02:11:10;25.50;54.40
13928;DHT22;7036;50.834;4.718;2023-06-10T02:13:34;25.50;54.40
13928;DHT22;7036;50.834;4.718;2023-06-10T02:16:01;25.50;54.40
13928;DHT22;7036;50.834;4.718;2023-06-10T02:18:28;25.50;54.40
13928;DHT22;7036;50.834;4.718;2023-06-10T02:20:55;25.50;54.40
13928;DHT22;7036;50.834;4.718;2023-06-10T02:23:22;25.40;54.30
13928;DHT22;7036;50.834;4.718;2023-06-10T02:25:51;25.40;54.30
13928;DHT22;7036;50.834;4.718;2023-06-10T02:28:19;25.40;54.30
13928;DHT22;7036;50.834;4.718;2023-06-10T02:30:45;25.40;54.30
13928;DHT22;7036;50.834;4.718;2023-06-10T02:33:12;25.40;54.30
13928;DHT22;7036;50.834;4.718;2023-06-10T02:35:40;25.40;54.30
13928;DHT22;7036;50.834;4.718;2023-06-10T02:38:07;25.40;54.40
13928;DHT22;7036;50.834;4.718;2023-06-10T02:40:35;25.40;54.30
13928;DHT22;7036;50.834;4.718;2023-06-10T02:43:20;25.40;54.30
13928;DHT22;7036;50.834;4.718;2023-06-10T02:45:35;25.40;54.30
13928;DHT22;7036;50.834;4.718;2023-06-10T02:48:02;25.40;54.30
13928;DHT22;7036;50.834;4.718;2023-06-10T02:50:29;25.40;54.40
13928;DHT22;7036;50.834;4.718;2023-06-10T02:52:59;25.40;54.40
13928;DHT22;7036;50.834;4.718;2023-06-10T02:55:26;25.40;54.40
13928;DHT22;7036;50.834;4.718;2023-06-10T02:57:53;25.30;54.30
13928;DHT22;7036;50.834;4.718;2023-06-10T03:00:22;25.30;54.30
13928;DHT22;7036;50.834;4.718;2023-06-10T03:02:49;25.40;54.30
13928;DHT22;7036;50.834;4.718;2023-06-10T03:05:16;25.40;55.00
13928;DHT22;7036;50.834;4.718;2023-06-10T03:07:43;25.40;54.30
13928;DHT22;7036;50.834;4.718;2023-06-10T03:10:12;25.40;54.30
13928;DHT22;7036;50.834;4.718;2023-06-10T03:12:41;25.40;54.30
13928;DHT22;7036;50.834;4.718;2023-06-10T03:15:08;25.40;54.30
13928;DHT22;7036;50.834;4.718;2023-06-10T03:17:37;25.30;54.30
13928;DHT22;7036;50.834;4.718;2023-06-10T03:20:05;25.40;54.30
13928;DHT22;7036;50.834;4.718;2023-06-10T03:22:32;25.40;54.40
13928;DHT22;7036;50.834;4.718;2023-06-10T03:24:59;25.30;54.40
13928;DHT22;7036;50.834;4.718;2023-06-10T03:27:26;25.30;54.30
13928;DHT22;7036;50.834;4.718;2023-06-10T03:29:54;25.30;54.10
13928;DHT22;7036;50.834;4.718;2023-06-10T03:32:27;25.30;54.30
13928;DHT22;7036;50.834;4.718;2023-06-10T03:34:52;25.30;54.30
13928;DHT22;7036;50.834;4.718;2023-06-10T03:37:18;25.30;54.40
13928;DHT22;7036;50.834;4.718;2023-06-10T03:39:46;25.30;54.40
13928;DHT22;7036;50.834;4.718;2023-06-10T03:42:13;25.30;55.10
13928;DHT22;7036;50.834;4.718;2023-06-10T03:44:40;25.30;54.40
13928;DHT22;7036;50.834;4.718;2023-06-10T03:47:07;25.30;54.40
13928;DHT22;7036;50.834;4.718;2023-06-10T03:49:34;25.30;54.40
13928;DHT22;7036;50.834;4.718;2023-06-10T03:52:04;25.30;54.40
13928;DHT22;7036;50.834;4.718;2023-06-10T03:54:32;25.30;55.00
13928;DHT22;7036;50.834;4.718;2023-06-10T03:57:00;25.30;54.50
13928;DHT22;7036;50.834;4.718;2023-06-10T03:59:28;25.30;54.40
13928;DHT22;7036;50.834;4.718;2023-06-10T04:01:55;25.30;54.40
13928;DHT22;7036;50.834;4.718;2023-06-10T04:04:25;25.20;54.30
13928;DHT22;7036;50.834;4.718;2023-06-10T04:06:53;25.30;54.60
13928;DHT22;7036;50.834;4.718;2023-06-10T04:09:20;25.30;54.30
13928;DHT22;7036;50.834;4.718;2023-06-10T04:11:50;25.20;54.30
13928;DHT22;7036;50.834;4.718;2023-06-10T04:14:17;25.20;54.30
13928;DHT22;7036;50.834;4.718;2023-06-10T04:16:44;25.30;54.40
13928;DHT22;7036;50.834;4.718;2023-06-10T04:19:11;25.30;54.40
13928;DHT22;7036;50.834;4.718;2023-06-10T04:21:38;25.30;54.40
13928;DHT22;7036;50.834;4.718;2023-06-10T04:24:05;25.30;54.40
13928;DHT22;7036;50.834;4.718;2023-06-10T04:26:34;25.30;54.40
13928;DHT22;7036;50.834;4.718;2023-06-10T04:28:59;25.30;54.40
13928;DHT22;7036;50.834;4.718;2023-06-10T04:31:27;25.20;54.30
13928;DHT22;7036;50.834;4.718;2023-06-10T04:33:54;25.20;54.50
13928;DHT22;7036;50.834;4.718;2023-06-10T04:36:21;25.20;54.30
13928;DHT22;7036;50.834;4.718;2023-06-10T04:38:48;25.30;54.40
13928;DHT22;7036;50.834;4.718;2023-06-10T04:41:16;25.30;54.50
13928;DHT22;7036;50.834;4.718;2023-06-10T04:43:43;25.20;54.30
13928;DHT22;7036;50.834;4.718;2023-06-10T04:46:10;25.30;54.40
13928;DHT22;7036;50.834;4.718;2023-06-10T04:48:38;25.20;54.30
13928;DHT22;7036;50.834;4.718;2023-06-10T04:51:06;25.20;54.30
13928;DHT22;7036;50.834;4.718;2023-06-10T04:53:33;25.30;54.40
13928;DHT22;7036;50.834;4.718;2023-06-10T04:56:00;25.20;54.30
13928;DHT22;7036;50.834;4.718;2023-06-10T04:58:27;25.20;54.30
13928;DHT22;7036;50.834;4.718;2023-06-10T05:00:54;25.20;54.30
13928;DHT22;7036;50.834;4.718;2023-06-10T05:03:21;25.20;54.40
13928;DHT22;7036;50.834;4.718;2023-06-10T05:05:48;25.30;54.40
13928;DHT22;7036;50.834;4.718;2023-06-10T05:08:18;25.30;54.50
13928;DHT22;7036;50.834;4.718;2023-06-10T05:10:46;25.30;54.40
13928;DHT22;7036;50.834;4.718;2023-06-10T05:13:16;25.20;54.40
13928;DHT22;7036;50.834;4.718;2023-06-10T05:15:42;25.30;54.40
13928;DHT22;7036;50.834;4.718;2023-06-10T05:18:09;25.30;54.40
13928;DHT22;7036;50.834;4.718;2023-06-10T05:20:36;25.20;54.30
13928;DHT22;7036;50.834;4.718;2023-06-10T05:23:03;25.20;54.10
13928;DHT22;7036;50.834;4.718;2023-06-10T05:25:30;25.20;54.10
13928;DHT22;7036;50.834;4.718;2023-06-10T05:27:57;25.20;54.20
13928;DHT22;7036;50.834;4.718;2023-06-10T05:30:24;25.20;54.20
13928;DHT22;7036;50.834;4.718;2023-06-10T05:32:51;25.20;54.30
13928;DHT22;7036;50.834;4.718;2023-06-10T05:35:18;25.20;54.00
13928;DHT22;7036;50.834;4.718;2023-06-10T05:37:45;25.20;54.10
13928;DHT22;7036;50.834;4.718;2023-06-10T05:40:12;25.20;54.00
13928;DHT22;7036;50.834;4.718;2023-06-10T05:42:39;25.20;54.10
13928;DHT22;7036;50.834;4.718;2023-06-10T05:45:07;25.20;54.90
13928;DHT22;7036;50.834;4.718;2023-06-10T05:47:34;25.20;54.60
13928;DHT22;7036;50.834;4.718;2023-06-10T05:50:04;25.20;54.50
13928;DHT22;7036;50.834;4.718;2023-06-10T05:52:34;25.30;54.40
13928;DHT22;7036;50.834;4.718;2023-06-10T05:54:58;25.30;54.50
13928;DHT22;7036;50.834;4.718;2023-06-10T05:57:28;25.30;54.50
13928;DHT22;7036;50.834;4.718;2023-06-10T05:59:56;25.30;54.40
13928;DHT22;7036;50.834;4.718;2023-06-10T06:02:24;25.30;54.40
13928;DHT22;7036;50.834;4.718;2023-06-10T06:04:54;25.40;54.40
13928;DHT22;7036;50.834;4.718;2023-06-10T06:07:21;25.40;54.60
13928;DHT22;7036;50.834;4.718;2023-06-10T06:09:48;25.40;54.60
13928;DHT22;7036;50.834;4.718;2023-06-10T06:12:16;25.40;54.50
13928;DHT22;7036;50.834;4.718;2023-06-10T06:14:43;25.50;54.60
13928;DHT22;7036;50.834;4.718;2023-06-10T06:17:14;25.50;54.60
13928;DHT22;7036;50.834;4.718;2023-06-10T06:19:43;25.50;54.60
13928;DHT22;7036;50.834;4.718;2023-06-10T06:22:11;25.50;54.50
13928;DHT22;7036;50.834;4.718;2023-06-10T06:24:40;25.60;54.50
13928;DHT22;7036;50.834;4.718;2023-06-10T06:27:07;25.60;54.40
13928;DHT22;7036;50.834;4.718;2023-06-10T06:29:37;25.60;54.40
13928;DHT22;7036;50.834;4.718;2023-06-10T06:32:01;25.60;54.40
13928;DHT22;7036;50.834;4.718;2023-06-10T06:34:28;25.60;54.40
13928;DHT22;7036;50.834;4.718;2023-06-10T06:36:55;25.60;54.30
13928;DHT22;7036;50.834;4.718;2023-06-10T06:39:22;25.60;54.30
13928;DHT22;7036;50.834;4.718;2023-06-10T06:41:49;25.70;54.40
13928;DHT22;7036;50.834;4.718;2023-06-10T06:44:18;25.70;54.40
13928;DHT22;7036;50.834;4.718;2023-06-10T06:46:48;25.70;54.30
13928;DHT22;7036;50.834;4.718;2023-06-10T06:49:12;25.70;54.30
13928;DHT22;7036;50.834;4.718;2023-06-10T06:51:40;25.70;54.30
13928;DHT22;7036;50.834;4.718;2023-06-10T06:54:06;25.70;54.30
13928;DHT22;7036;50.834;4.718;2023-06-10T06:56:37;25.70;54.90
13928;DHT22;7036;50.834;4.718;2023-06-10T06:59:03;25.70;54.20
13928;DHT22;7036;50.834;4.718;2023-06-10T07:01:32;25.80;54.30
13928;DHT22;7036;50.834;4.718;2023-06-10T07:03:57;25.80;54.30
13928;DHT22;7036;50.834;4.718;2023-06-10T07:06:24;25.80;54.30
13928;DHT22;7036;50.834;4.718;2023-06-10T07:08:51;25.80;54.30
13928;DHT22;7036;50.834;4.718;2023-06-10T07:11:21;25.80;54.40
13928;DHT22;7036;50.834;4.718;2023-06-10T07:13:49;25.80;54.30
13928;DHT22;7036;50.834;4.718;2023-06-10T07:16:20;25.90;54.30
13928;DHT22;7036;50.834;4.718;2023-06-10T07:18:47;25.90;54.30
13928;DHT22;7036;50.834;4.718;2023-06-10T07:21:14;25.90;54.30
13928;DHT22;7036;50.834;4.718;2023-06-10T07:23:43;25.90;54.30
13928;DHT22;7036;50.834;4.718;2023-06-10T07:26:13;25.90;53.70
13928;DHT22;7036;50.834;4.718;2023-06-10T07:28:44;25.90;54.20
13928;DHT22;7036;50.834;4.718;2023-06-10T07:31:12;25.90;54.20
13928;DHT22;7036;50.834;4.718;2023-06-10T07:33:40;25.90;54.30
13928;DHT22;7036;50.834;4.718;2023-06-10T07:36:07;25.90;54.20
13928;DHT22;7036;50.834;4.718;2023-06-10T07:38:34;25.90;54.20
13928;DHT22;7036;50.834;4.718;2023-06-10T07:41:04;26.00;54.20
13928;DHT22;7036;50.834;4.718;2023-06-10T07:43:31;26.00;54.20
13928;DHT22;7036;50.834;4.718;2023-06-10T07:46:01;26.00;54.20
13928;DHT22;7036;50.834;4.718;2023-06-10T07:48:32;26.00;54.20
13928;DHT22;7036;50.834;4.718;2023-06-10T07:51:04;26.00;54.20
13928;DHT22;7036;50.834;4.718;2023-06-10T07:53:28;26.00;54.20
13928;DHT22;7036;50.834;4.718;2023-06-10T07:55:58;26.00;54.20
13928;DHT22;7036;50.834;4.718;2023-06-10T07:58:30;26.00;54.20
13928;DHT22;7036;50.834;4.718;2023-06-10T08:00:54;26.00;54.20
13928;DHT22;7036;50.834;4.718;2023-06-10T08:03:21;26.10;54.20
13928;DHT22;7036;50.834;4.718;2023-06-10T08:05:48;26.10;54.20
13928;DHT22;7036;50.834;4.718;2023-06-10T08:08:18;26.10;54.20
13928;DHT22;7036;50.834;4.718;2023-06-10T08:10:44;26.10;54.20
13928;DHT22;7036;50.834;4.718;2023-06-10T08:13:11;26.10;54.20
13928;DHT22;7036;50.834;4.718;2023-06-10T08:15:38;26.10;54.20
13928;DHT22;7036;50.834;4.718;2023-06-10T08:18:05;26.10;54.20
13928;DHT22;7036;50.834;4.718;2023-06-10T08:20:36;26.10;54.20
13928;DHT22;7036;50.834;4.718;2023-06-10T08:23:01;26.10;54.20
13928;DHT22;7036;50.834;4.718;2023-06-10T08:25:38;26.10;54.20
13928;DHT22;7036;50.834;4.718;2023-06-10T08:27:55;26.10;54.20
13928;DHT22;7036;50.834;4.718;2023-06-10T08:30:22;26.10;54.20
13928;DHT22;7036;50.834;4.718;2023-06-10T08:32:50;26.10;54.20
13928;DHT22;7036;50.834;4.718;2023-06-10T08:35:17;26.20;54.80
13928;DHT22;7036;50.834;4.718;2023-06-10T08:37:44;26.10;54.60
13928;DHT22;7036;50.834;4.718;2023-06-10T08:40:12;26.20;54.50
13928;DHT22;7036;50.834;4.718;2023-06-10T08:43:00;26.20;54.40
13928;DHT22;7036;50.834;4.718;2023-06-10T08:45:23;26.20;54.40
13928;DHT22;7036;50.834;4.718;2023-06-10T08:47:50;26.20;54.40
13928;DHT22;7036;50.834;4.718;2023-06-10T08:50:19;26.20;54.30
13928;DHT22;7036;50.834;4.718;2023-06-10T08:52:50;26.20;54.30
13928;DHT22;7036;50.834;4.718;2023-06-10T08:55:23;26.20;54.40
13928;DHT22;7036;50.834;4.718;2023-06-10T08:57:48;26.20;54.30
13928;DHT22;7036;50.834;4.718;2023-06-10T09:00:18;26.20;54.30
13928;DHT22;7036;50.834;4.718;2023-06-10T09:02:45;26.20;54.20
13928;DHT22;7036;50.834;4.718;2023-06-10T09:05:15;26.20;54.30
13928;DHT22;7036;50.834;4.718;2023-06-10T09:07:42;26.20;54.20
13928;DHT22;7036;50.834;4.718;2023-06-10T09:10:10;26.20;54.20
13928;DHT22;7036;50.834;4.718;2023-06-10T09:12:37;26.20;54.10
13928;DHT22;7036;50.834;4.718;2023-06-10T09:15:05;26.20;54.10
13928;DHT22;7036;50.834;4.718;2023-06-10T09:17:31;26.20;53.90
13928;DHT22;7036;50.834;4.718;2023-06-10T09:20:01;26.20;54.00
13928;DHT22;7036;50.834;4.718;2023-06-10T09:22:29;26.30;54.10
13928;DHT22;7036;50.834;4.718;2023-06-10T09:25:12;26.20;53.90
13928;DHT22;7036;50.834;4.718;2023-06-10T09:27:51;26.30;53.90
13928;DHT22;7036;50.834;4.718;2023-06-10T09:30:33;26.30;53.90
13928;DHT22;7036;50.834;4.718;2023-06-10T09:32:51;26.30;53.90
13928;DHT22;7036;50.834;4.718;2023-06-10T09:35:17;26.30;53.90
13928;DHT22;7036;50.834;4.718;2023-06-10T09:37:44;26.30;53.90
13928;DHT22;7036;50.834;4.718;2023-06-10T09:40:14;26.20;53.70
13928;DHT22;7036;50.834;4.718;2023-06-10T09:42:40;26.30;53.80
13928;DHT22;7036;50.834;4.718;2023-06-10T09:45:12;26.20;53.70
13928;DHT22;7036;50.834;4.718;2023-06-10T09:47:35;26.30;53.20
13928;DHT22;7036;50.834;4.718;2023-06-10T09:50:02;26.20;53.70
13928;DHT22;7036;50.834;4.718;2023-06-10T09:52:29;26.30;53.90
13928;DHT22;7036;50.834;4.718;2023-06-10T09:54:59;26.20;53.90
13928;DHT22;7036;50.834;4.718;2023-06-10T09:57:25;26.30;54.00
13928;DHT22;7036;50.834;4.718;2023-06-10T09:59:55;26.30;54.00
13928;DHT22;7036;50.834;4.718;2023-06-10T10:02:22;26.30;54.00
13928;DHT22;7036;50.834;4.718;2023-06-10T10:04:50;26.30;54.30
13928;DHT22;7036;50.834;4.718;2023-06-10T10:07:19;26.20;54.00
13928;DHT22;7036;50.834;4.718;2023-06-10T10:09:47;26.30;54.70
13928;DHT22;7036;50.834;4.718;2023-06-10T10:12:18;26.20;54.00
13928;DHT22;7036;50.834;4.718;2023-06-10T10:14:48;26.30;54.10
13928;DHT22;7036;50.834;4.718;2023-06-10T10:17:17;26.30;54.10
13928;DHT22;7036;50.834;4.718;2023-06-10T10:19:50;26.30;54.10
13928;DHT22;7036;50.834;4.718;2023-06-10T10:22:31;26.30;54.20
13928;DHT22;7036;50.834;4.718;2023-06-10T10:24:57;26.30;54.20
13928;DHT22;7036;50.834;4.718;2023-06-10T10:27:38;26.30;54.10
13928;DHT22;7036;50.834;4.718;2023-06-10T10:30:06;26.30;54.00
13928;DHT22;7036;50.834;4.718;2023-06-10T10:32:52;26.30;53.70
13928;DHT22;7036;50.834;4.718;2023-06-10T10:35:16;26.30;53.60
13928;DHT22;7036;50.834;4.718;2023-06-10T10:37:45;26.30;53.50
13928;DHT22;7036;50.834;4.718;2023-06-10T10:40:12;26.30;53.40
13928;DHT22;7036;50.834;4.718;2023-06-10T10:42:39;26.30;53.40
13928;DHT22;7036;50.834;4.718;2023-06-10T10:45:09;26.30;53.60
13928;DHT22;7036;50.834;4.718;2023-06-10T10:47:37;26.30;53.60
13928;DHT22;7036;50.834;4.718;2023-06-10T10:50:14;26.30;53.60
13928;DHT22;7036;50.834;4.718;2023-06-10T10:52:46;26.30;53.70
13928;DHT22;7036;50.834;4.718;2023-06-10T10:54:58;26.30;53.00
13928;DHT22;7036;50.834;4.718;2023-06-10T10:57:28;26.30;53.70
13928;DHT22;7036;50.834;4.718;2023-06-10T10:59:53;26.30;53.80
13928;DHT22;7036;50.834;4.718;2023-06-10T11:02:41;26.30;53.80
13928;DHT22;7036;50.834;4.718;2023-06-10T11:04:49;26.30;53.90
13928;DHT22;7036;50.834;4.718;2023-06-10T11:07:19;26.30;53.80
13928;DHT22;7036;50.834;4.718;2023-06-10T11:15:23;26.40;53.90
13928;DHT22;7036;50.834;4.718;2023-06-10T11:23:32;26.40;53.90
13928;DHT22;7036;50.834;4.718;2023-06-10T11:26:20;26.40;53.90
13928;DHT22;7036;50.834;4.718;2023-06-10T11:31:25;26.40;54.00
13928;DHT22;7036;50.834;4.718;2023-06-10T11:34:13;26.40;53.80
13928;DHT22;7036;50.834;4.718;2023-06-10T11:36:28;26.40;53.80
13928;DHT22;7036;50.834;4.718;2023-06-10T11:39:02;26.40;53.90
13928;DHT22;7036;50.834;4.718;2023-06-10T11:41:30;26.40;53.90
13928;DHT22;7036;50.834;4.718;2023-06-10T11:43:55;26.40;53.90
13928;DHT22;7036;50.834;4.718;2023-06-10T11:46:24;26.40;53.90
13928;DHT22;7036;50.834;4.718;2023-06-10T11:49:00;26.40;53.90
13928;DHT22;7036;50.834;4.718;2023-06-10T11:51:28;26.40;53.80
13928;DHT22;7036;50.834;4.718;2023-06-10T11:53:54;26.40;53.80
13928;DHT22;7036;50.834;4.718;2023-06-10T11:56:21;26.40;53.90
13928;DHT22;7036;50.834;4.718;2023-06-10T11:59:00;26.40;53.90
13928;DHT22;7036;50.834;4.718;2023-06-10T12:01:24;26.40;53.90
13928;DHT22;7036;50.834;4.718;2023-06-10T12:04:09;26.40;53.90
13928;DHT22;7036;50.834;4.718;2023-06-10T12:06:39;26.40;53.90
13928;DHT22;7036;50.834;4.718;2023-06-10T12:09:06;26.40;53.90
13928;DHT22;7036;50.834;4.718;2023-06-10T12:11:35;26.40;53.80
13928;DHT22;7036;50.834;4.718;2023-06-10T12:13:59;26.40;53.90
13928;DHT22;7036;50.834;4.718;2023-06-10T12:16:26;26.40;53.90
13928;DHT22;7036;50.834;4.718;2023-06-10T12:19:00;26.40;53.90
13928;DHT22;7036;50.834;4.718;2023-06-10T12:21:26;26.40;54.50
13928;DHT22;7036;50.834;4.718;2023-06-10T12:24:08;26.40;53.90
13928;DHT22;7036;50.834;4.718;2023-06-10T12:26:42;26.40;54.40
13928;DHT22;7036;50.834;4.718;2023-06-10T12:29:18;26.40;53.90
13928;DHT22;7036;50.834;4.718;2023-06-10T12:32:01;26.40;53.90
13928;DHT22;7036;50.834;4.718;2023-06-10T12:37:00;26.40;53.90
13928;DHT22;7036;50.834;4.718;2023-06-10T12:39:27;26.50;53.90
13928;DHT22;7036;50.834;4.718;2023-06-10T12:41:54;26.40;53.90
13928;DHT22;7036;50.834;4.718;2023-06-10T12:44:32;26.50;53.90
13928;DHT22;7036;50.834;4.718;2023-06-10T12:46:59;26.50;53.80
13928;DHT22;7036;50.834;4.718;2023-06-10T12:49:26;26.50;53.80
13928;DHT22;7036;50.834;4.718;2023-06-10T12:51:53;26.50;53.60
13928;DHT22;7036;50.834;4.718;2023-06-10T12:54:20;26.50;53.50
13928;DHT22;7036;50.834;4.718;2023-06-10T12:56:49;26.50;53.30
13928;DHT22;7036;50.834;4.718;2023-06-10T12:59:14;26.50;53.20
13928;DHT22;7036;50.834;4.718;2023-06-10T13:01:44;26.50;53.10
13928;DHT22;7036;50.834;4.718;2023-06-10T13:04:13;26.50;53.00
13928;DHT22;7036;50.834;4.718;2023-06-10T13:06:38;26.50;53.00
13928;DHT22;7036;50.834;4.718;2023-06-10T13:09:07;26.50;52.80
13928;DHT22;7036;50.834;4.718;2023-06-10T13:11:35;26.50;53.00
13928;DHT22;7036;50.834;4.718;2023-06-10T13:14:04;26.50;52.90
13928;DHT22;7036;50.834;4.718;2023-06-10T13:16:33;26.50;53.00
13928;DHT22;7036;50.834;4.718;2023-06-10T13:19:00;26.50;53.00
13928;DHT22;7036;50.834;4.718;2023-06-10T13:21:27;26.50;53.00
13928;DHT22;7036;50.834;4.718;2023-06-10T13:23:54;26.50;53.10
13928;DHT22;7036;50.834;4.718;2023-06-10T13:26:21;26.50;53.00
13928;DHT22;7036;50.834;4.718;2023-06-10T13:28:48;26.50;53.10
13928;DHT22;7036;50.834;4.718;2023-06-10T13:31:15;26.50;53.10
13928;DHT22;7036;50.834;4.718;2023-06-10T13:33:44;26.50;53.20
13928;DHT22;7036;50.834;4.718;2023-06-10T13:36:10;26.50;53.20
13928;DHT22;7036;50.834;4.718;2023-06-10T13:38:39;26.50;53.20
13928;DHT22;7036;50.834;4.718;2023-06-10T13:41:10;26.60;53.20
13928;DHT22;7036;50.834;4.718;2023-06-10T13:43:39;26.60;53.00
13928;DHT22;7036;50.834;4.718;2023-06-10T13:46:04;26.60;53.00
13928;DHT22;7036;50.834;4.718;2023-06-10T13:48:31;26.60;52.90
13928;DHT22;7036;50.834;4.718;2023-06-10T13:51:02;26.60;52.90
13928;DHT22;7036;50.834;4.718;2023-06-10T13:53:26;26.60;52.90
13928;DHT22;7036;50.834;4.718;2023-06-10T13:55:53;26.60;52.90
13928;DHT22;7036;50.834;4.718;2023-06-10T13:58:21;26.60;52.80
13928;DHT22;7036;50.834;4.718;2023-06-10T14:00:48;26.60;52.70
13928;DHT22;7036;50.834;4.718;2023-06-10T14:03:15;26.60;52.60
13928;DHT22;7036;50.834;4.718;2023-06-10T14:05:45;26.60;52.60
13928;DHT22;7036;50.834;4.718;2023-06-10T14:08:09;26.60;52.50
13928;DHT22;7036;50.834;4.718;2023-06-10T14:10:39;26.60;52.50
13928;DHT22;7036;50.834;4.718;2023-06-10T14:13:06;26.60;52.40
13928;DHT22;7036;50.834;4.718;2023-06-10T14:15:33;26.60;52.20
13928;DHT22;7036;50.834;4.718;2023-06-10T14:18:00;26.60;52.10
13928;DHT22;7036;50.834;4.718;2023-06-10T14:20:27;26.60;52.10
13928;DHT22;7036;50.834;4.718;2023-06-10T14:22:58;26.70;51.50
13928;DHT22;7036;50.834;4.718;2023-06-10T14:25:23;26.70;51.90
13928;DHT22;7036;50.834;4.718;2023-06-10T14:27:50;26.70;51.90
13928;DHT22;7036;50.834;4.718;2023-06-10T14:30:20;26.70;51.70
13928;DHT22;7036;50.834;4.718;2023-06-10T14:32:47;26.70;51.70
13928;DHT22;7036;50.834;4.718;2023-06-10T14:35:15;26.70;51.60
13928;DHT22;7036;50.834;4.718;2023-06-10T14:37:45;26.70;51.50
13928;DHT22;7036;50.834;4.718;2023-06-10T14:40:15;26.70;51.20
13928;DHT22;7036;50.834;4.718;2023-06-10T14:42:46;26.80;51.10
13928;DHT22;7036;50.834;4.718;2023-06-10T14:45:12;26.80;51.00
13928;DHT22;7036;50.834;4.718;2023-06-10T14:47:39;26.80;51.00
13928;DHT22;7036;50.834;4.718;2023-06-10T14:50:11;26.80;51.00
13928;DHT22;7036;50.834;4.718;2023-06-10T14:52:36;26.80;50.40
13928;DHT22;7036;50.834;4.718;2023-06-10T14:55:03;26.90;50.10
13928;DHT22;7036;50.834;4.718;2023-06-10T14:57:30;26.90;49.80
13928;DHT22;7036;50.834;4.718;2023-06-10T15:00:00;26.90;49.50
13928;DHT22;7036;50.834;4.718;2023-06-10T15:02:27;26.90;49.40
13928;DHT22;7036;50.834;4.718;2023-06-10T15:04:54;26.90;49.50
13928;DHT22;7036;50.834;4.718;2023-06-10T15:07:25;26.90;49.00
13928;DHT22;7036;50.834;4.718;2023-06-10T15:09:52;26.90;48.70
13928;DHT22;7036;50.834;4.718;2023-06-10T15:12:20;27.00;48.60
13928;DHT22;7036;50.834;4.718;2023-06-10T15:14:46;27.00;48.70
13928;DHT22;7036;50.834;4.718;2023-06-10T15:17:16;27.00;48.70
13928;DHT22;7036;50.834;4.718;2023-06-10T15:19:42;27.00;48.60
13928;DHT22;7036;50.834;4.718;2023-06-10T15:22:14;27.00;48.40
13928;DHT22;7036;50.834;4.718;2023-06-10T15:24:45;27.00;48.50
13928;DHT22;7036;50.834;4.718;2023-06-10T15:27:10;27.00;48.40
13928;DHT22;7036;50.834;4.718;2023-06-10T15:29:40;27.10;48.40
13928;DHT22;7036;50.834;4.718;2023-06-10T15:32:08;27.10;48.40
13928;DHT22;7036;50.834;4.718;2023-06-10T15:34:37;27.10;48.40
13928;DHT22;7036;50.834;4.718;2023-06-10T15:37:05;27.10;48.40
13928;DHT22;7036;50.834;4.718;2023-06-10T15:39:34;27.10;48.40
13928;DHT22;7036;50.834;4.718;2023-06-10T15:42:04;27.20;48.40
13928;DHT22;7036;50.834;4.718;2023-06-10T15:44:32;27.20;48.50
13928;DHT22;7036;50.834;4.718;2023-06-10T15:46:59;27.20;48.50
13928;DHT22;7036;50.834;4.718;2023-06-10T15:49:35;27.10;48.30
13928;DHT22;7036;50.834;4.718;2023-06-10T15:52:05;27.20;48.30
13928;DHT22;7036;50.834;4.718;2023-06-10T15:54:33;27.20;48.50
13928;DHT22;7036;50.834;4.718;2023-06-10T15:56:59;27.20;48.40
13928;DHT22;7036;50.834;4.718;2023-06-10T15:59:30;27.20;48.20
13928;DHT22;7036;50.834;4.718;2023-06-10T16:01:57;27.20;48.20
13928;DHT22;7036;50.834;4.718;2023-06-10T16:04:23;27.20;48.20
13928;DHT22;7036;50.834;4.718;2023-06-10T16:06:56;27.20;48.00
13928;DHT22;7036;50.834;4.718;2023-06-10T16:09:24;27.30;47.80